• Join FlightAware (Why Join?)
  • Login
  • US Flag 
01:51PM EDT


 

Airport Tracker/Info


-or-


 

Live Flight TrackerFlight Track Log ✈ FLG3429 ✈ 21-Jul-2013 ✈ KJFK - KJAX

Flight Track Log - Related Links

Times and Time Zones

All times are in EDT time to prevent confusion due to time zone crossing. See the FLG3429 flight status page for this flight to view local times or setup timezone preferences in your user account.

Time Position Orientation Groundspeed Altitude Reporting Facility
EDT Latitude Longitude Course Direction KTS MPH feet Rate Location/Type
08:58PM 40.6500 -73.8667 229° Southwest 198 228 1,500  Level New York TRACON
08:59PM 40.6000 -73.9000 207° Southwest 219 252 3,400 1,860 Climbing New York TRACON
09:00PM 40.5333 -73.9500 210° Southwest 267 307 5,300 2,220 Climbing New York TRACON
09:01PM 40.4667 -74.0167 217° Southwest 273 314 7,900 2,460 Climbing New York TRACON
09:02PM 40.2959 -74.3180 232° Southwest  Level FlightAware Approximate
09:02PM 40.4167 -74.0667 217° Southwest 279 321 10,300  Level New York TRACON
09:03PM 40.2299 -74.4302 229° Southwest  Level FlightAware Approximate
09:03PM 40.3667 -74.1667 237° Southwest 327 376 11,500  Level New York TRACON
09:04PM 40.3008 -74.2925 236° Southwest 349 402 14,100 1,920 Climbing New York Center
09:05PM 40.2561 -74.3881 239° Southwest 349 402 15,900 1,440 Climbing New York Center
09:06PM 40.2114 -74.4836 239° Southwest 349 402 17,000 1,440 Climbing New York Center
09:07PM 40.1922 -74.6294 260° West 355 409 18,900 1,740 Climbing New York Center
09:08PM 40.1789 -74.7753 263° West 373 429 20,600 1,620 Climbing New York Center
09:09PM 40.1728 -74.8972 266° West 378 435 22,100 1,380 Climbing New York Center
09:10PM 40.1617 -75.0297 264° West 378 435 23,300 1,020 Climbing New York Center
09:11PM 40.1503 -75.1703 264° West 378 435 24,200 960 Climbing New York Center
09:12PM 40.1325 -75.3075 260° West 383 441 25,300 780 Climbing New York Center
09:13PM 40.0839 -75.4344 243° Southwest 391 450 25,800 720 Climbing New York Center
09:14PM 40.0392 -75.5617 245° Southwest 396 456 26,800 780 Climbing New York Center
09:15PM 39.9925 -75.6833 243° Southwest 386 444 27,500 600 Climbing New York Center
09:16PM 39.9431 -75.8150 244° Southwest 391 450 28,100 660 Climbing New York Center
09:17PM 39.8936 -75.9469 244° Southwest 403 464 28,900 1,140 Climbing New York Center
09:19PM 39.8081 -76.1775 244° Southwest 415 478 31,300 1,260 Climbing Washington Center
09:20PM 39.7594 -76.3014 243° Southwest 401 461 32,300 1,020 Climbing Washington Center
09:21PM 39.7067 -76.4250 241° Southwest 395 455 33,300 840 Climbing Washington Center
09:22PM 39.6661 -76.5378 245° Southwest 389 448 34,000 300 Climbing Washington Center
09:23PM 39.6153 -76.6608 242° Southwest 388 447 34,000  Level Washington Center
09:24PM 39.5658 -76.7947 244° Southwest 394 453 34,000  Level Washington Center
09:25PM 39.5144 -76.9258 243° Southwest 402 463 34,000  Level Washington Center
09:26PM 39.4406 -77.0319 228° Southwest 402 463 34,000 360 Level Washington Center
09:27PM 39.3517 -77.1294 220° Southwest 407 468 34,800 720 Climbing Washington Center
09:28PM 39.2650 -77.2189 219° Southwest 407 468 35,500 540 Climbing Washington Center
09:29PM 39.1764 -77.3106 219° Southwest 412 474 36,000 240 Climbing Washington Center
09:30PM 39.0894 -77.4022 219° Southwest 412 474 36,000  Level Washington Center
09:31PM 39.0006 -77.4933 219° Southwest 412 474 36,000  Level Washington Center
09:32PM 38.9031 -77.5950 219° Southwest 413 475 36,000  Level Washington Center
09:33PM 38.8117 -77.6883 219° Southwest 413 475 36,000  Level Washington Center
09:34PM 38.7206 -77.7817 219° Southwest 431 496 36,000  Level Washington Center
09:35PM 38.6333 -77.8747 220° Southwest 421 484 36,000  Level Washington Center
09:36PM 38.5664 -77.9919 234° Southwest 411 473 36,000  Level Washington Center
09:37PM 38.4972 -78.1092 233° Southwest 416 479 36,000  Level Washington Center
09:38PM 38.4303 -78.2208 233° Southwest 416 479 36,000  Level Washington Center
09:39PM 38.3608 -78.3403 233° Southwest 416 479 36,000  Level Washington Center
09:40PM 38.2933 -78.4569 234° Southwest 416 479 36,000  Level Washington Center
09:41PM 38.2281 -78.5733 234° Southwest 416 479 36,000  Level Washington Center
09:42PM 38.1583 -78.6867 232° Southwest 416 479 36,000  Level Washington Center
09:43PM 38.0908 -78.8000 233° Southwest 416 479 36,000  Level Washington Center
09:44PM 38.0231 -78.9158 233° Southwest 416 479 36,000  Level Washington Center
09:45PM 37.9597 -79.0156 231° Southwest 416 479 36,000  Level Washington Center
09:46PM 37.8875 -79.1308 232° Southwest 416 479 36,000  Level Washington Center
09:47PM 37.8111 -79.2403 229° Southwest 421 484 36,000  Level Washington Center
09:48PM 37.7264 -79.3569 227° Southwest 421 484 36,000  Level Washington Center
09:49PM 37.6500 -79.4556 226° Southwest 431 496 36,000  Level Washington Center
09:50PM 37.5628 -79.5767 228° Southwest 426 490 36,000  Level Washington Center
09:51PM 37.4925 -79.6778 229° Southwest 426 490 36,000  Level Washington Center
09:53PM 37.3031 -79.9297 227° Southwest 413 475 36,000  Level Atlanta Center
09:54PM 37.2172 -80.0436 227° Southwest 413 475 36,000  Level Atlanta Center
09:55PM 37.1414 -80.1489 228° Southwest 407 468 36,000  Level Atlanta Center
09:56PM 37.0614 -80.2544 226° Southwest 407 468 36,000  Level Atlanta Center
09:57PM 36.9767 -80.3519 223° Southwest 412 474 36,000  Level Atlanta Center
09:58PM 36.8911 -80.4183 212° Southwest 412 474 36,000  Level Atlanta Center
09:59PM 36.7975 -80.4978 214° Southwest 417 480 36,000  Level Atlanta Center
10:00PM 36.7019 -80.5769 214° Southwest 417 480 36,000  Level Atlanta Center
10:01PM 36.6042 -80.6589 214° Southwest 412 474 36,000  Level Atlanta Center
10:02PM 36.5081 -80.7378 213° Southwest 419 482 36,000  Level Atlanta Center
10:03PM 36.4081 -80.8167 212° Southwest 419 482 36,000  Level Atlanta Center
10:04PM 36.2967 -80.8600 197° South 425 489 36,000  Level Atlanta Center
10:05PM 36.1706 -80.9086 197° South 431 496 36,000  Level Atlanta Center
10:06PM 36.0547 -80.9489 196° South 431 496 36,000  Level Atlanta Center
10:07PM 35.9392 -80.9919 197° South 431 496 36,000  Level Atlanta Center
10:08PM 35.8214 -81.0347 196° South 431 496 36,000  Level Atlanta Center
10:09PM 35.7053 -81.0747 196° South 431 496 36,000  Level Atlanta Center
10:10PM 35.5833 -81.1200 197° South 437 503 36,000  Level Atlanta Center
10:11PM 35.4736 -81.1544 194° South 451 519 36,000  Level Atlanta Center
10:12PM 35.3600 -81.2019 199° South 452 520 36,000  Level Atlanta Center
10:13PM 35.2419 -81.2439 196° South 442 509 36,000  Level Atlanta Center
10:14PM 35.1117 -81.2917 197° South 442 509 36,000  Level Atlanta Center
10:15PM 34.9914 -81.3208 191° South 442 509 36,000  Level Atlanta Center
10:17PM 34.7614 -81.3308 182° South 455 524 36,000  Level Jacksonville Center
10:18PM 34.6342 -81.3358 182° South 462 532 36,000  Level Jacksonville Center
10:19PM 34.5050 -81.3381 181° South 462 532 36,000  Level Jacksonville Center
10:20PM 34.3922 -81.3325 178° South 454 522 36,000  Level Jacksonville Center
10:21PM 34.2586 -81.3197 175° South 452 520 36,000  Level Jacksonville Center
10:22PM 34.1331 -81.2919 170° South 446 513 36,000 -120 Level Jacksonville Center
10:23PM 34.0131 -81.2164 152° Southeast 455 524 35,800 -360 Descending Jacksonville Center
10:24PM 33.8994 -81.1511 154° Southeast 460 529 35,300 -540 Descending Jacksonville Center
10:25PM 33.7742 -81.1386 175° South 441 507 34,800 -960 Descending Jacksonville Center
10:26PM 33.6614 -81.1433 182° South 450 518 33,400 -1,620 Descending Jacksonville Center
10:27PM 33.5258 -81.1486 182° South 461 531 31,600 -1,740 Descending Jacksonville Center
10:28PM 33.3944 -81.1536 182° South 471 542 30,000 -840 Descending Jacksonville Center
10:29PM 33.2672 -81.1611 183° South 471 542 30,000  Level Jacksonville Center
10:30PM 33.1381 -81.1636 181° South 471 542 30,000  Level Jacksonville Center
10:31PM 33.0086 -81.1708 183° South 471 542 30,000  Level Jacksonville Center
10:32PM 32.8814 -81.1733 181° South 466 536 30,000  Level Jacksonville Center
10:33PM 32.7542 -81.1783 182° South 461 531 30,000 -120 Level Jacksonville Center
10:34PM 32.6144 -81.1858 183° South 451 519 29,800 -780 Descending Jacksonville Center
10:35PM 32.4892 -81.1906 182° South 458 527 28,500 -1,260 Descending Jacksonville Center
10:36PM 32.3722 -81.1903 180° South 458 527 27,300 -1,260 Descending Jacksonville Center
10:37PM 32.2533 -81.1950 182° South 453 521 26,000 -1,320 Descending Jacksonville Center
10:38PM 32.1322 -81.1997 182° South 443 510 24,700 -1,380 Descending Jacksonville Center
10:39PM 32.0153 -81.2019 181° South 436 502 23,300 -1,680 Descending Jacksonville Center
10:40PM 31.8881 -81.2067 182° South 418 481 21,400 -1,680 Descending Jacksonville Center
10:41PM 31.7797 -81.2283 190° South 413 475 20,000 -1,500 Descending Jacksonville Center
10:42PM 31.6861 -81.2567 194° South 396 456 18,400 -1,620 Descending Jacksonville Center
10:43PM 31.5739 -81.2906 194° South 383 441 16,800 -1,500 Descending Jacksonville Center
10:44PM 31.4844 -81.3164 194° South 377 434 15,400 -1,500 Descending Jacksonville Center
10:45PM 31.3783 -81.3472 194° South 372 428 13,900 -1,380 Descending Jacksonville Center
10:46PM 31.2911 -81.3803 198° South 372 428 12,700 -1,260 Descending Jacksonville Center
10:47PM 31.1975 -81.4039 192° South 361 415 11,400 -1,260 Descending Jacksonville Center
10:48PM 31.1081 -81.4342 196° South 349 402 10,200 -720 Descending Jacksonville Center
10:49PM 30.9975 -81.4628 193° South 334 384 10,000 -240 Descending Jacksonville Center
10:50PM 30.9144 -81.4856 193° South 290 334 9,800 -900 Descending Jacksonville Center
10:51PM 30.8353 -81.5061 193° South 288 331 8,200 -1,740 Descending Jacksonville Center
10:52PM 30.7811 -81.5239 196° South 293 337 6,600 -2,040 Descending Jacksonville Center
10:53PM 30.7083 -81.5444 194° South 275 316 4,400 -1,860 Descending Jacksonville Center
10:54PM 30.6397 -81.5669 196° South 270 311 2,900 -1,500 Descending Jacksonville Center